sensor_id;sensor_type;location;lat;lon;timestamp;temperature;humidity
15357;DHT22;7778;48.792;9.260;2022-08-14T00:01:21;19.40;92.50
15357;DHT22;7778;48.792;9.260;2022-08-14T00:04:06;19.40;93.10
15357;DHT22;7778;48.792;9.260;2022-08-14T00:06:53;19.40;93.70
15357;DHT22;7778;48.792;9.260;2022-08-14T00:09:39;19.40;94.30
15357;DHT22;7778;48.792;9.260;2022-08-14T00:12:25;19.30;95.10
15357;DHT22;7778;48.792;9.260;2022-08-14T00:15:15;19.20;95.50
15357;DHT22;7778;48.792;9.260;2022-08-14T00:18:06;19.00;96.30
15357;DHT22;7778;48.792;9.260;2022-08-14T00:20:55;19.00;96.90
15357;DHT22;7778;48.792;9.260;2022-08-14T00:23:41;18.90;98.10
15357;DHT22;7778;48.792;9.260;2022-08-14T00:26:26;18.80;99.30
15357;DHT22;7778;48.792;9.260;2022-08-14T00:29:12;18.80;99.90
15357;DHT22;7778;48.792;9.260;2022-08-14T00:31:58;18.80;99.90
15357;DHT22;7778;48.792;9.260;2022-08-14T00:34:45;18.80;99.90
15357;DHT22;7778;48.792;9.260;2022-08-14T00:37:32;18.80;99.90
15357;DHT22;7778;48.792;9.260;2022-08-14T00:40:19;19.00;99.90
15357;DHT22;7778;48.792;9.260;2022-08-14T00:43:05;18.70;99.90
15357;DHT22;7778;48.792;9.260;2022-08-14T00:45:52;18.60;99.90
15357;DHT22;7778;48.792;9.260;2022-08-14T00:48:38;18.60;99.90
15357;DHT22;7778;48.792;9.260;2022-08-14T00:51:26;18.50;99.90
15357;DHT22;7778;48.792;9.260;2022-08-14T00:54:16;18.40;99.90
15357;DHT22;7778;48.792;9.260;2022-08-14T00:57:03;18.40;99.90
15357;DHT22;7778;48.792;9.260;2022-08-14T00:59:49;18.30;99.90
15357;DHT22;7778;48.792;9.260;2022-08-14T01:02:35;18.30;99.90
15357;DHT22;7778;48.792;9.260;2022-08-14T01:05:22;18.30;99.90
15357;DHT22;7778;48.792;9.260;2022-08-14T01:08:09;18.20;99.90
15357;DHT22;7778;48.792;9.260;2022-08-14T01:10:56;18.20;99.90
15357;DHT22;7778;48.792;9.260;2022-08-14T01:13:43;18.10;99.90
15357;DHT22;7778;48.792;9.260;2022-08-14T01:16:33;18.10;99.90
15357;DHT22;7778;48.792;9.260;2022-08-14T01:19:19;18.00;99.90
15357;DHT22;7778;48.792;9.260;2022-08-14T01:22:24;18.00;99.90
15357;DHT22;7778;48.792;9.260;2022-08-14T01:25:10;18.00;99.90
15357;DHT22;7778;48.792;9.260;2022-08-14T01:27:59;17.90;99.90
15357;DHT22;7778;48.792;9.260;2022-08-14T01:30:44;17.80;99.90
15357;DHT22;7778;48.792;9.260;2022-08-14T01:33:31;17.70;99.90
15357;DHT22;7778;48.792;9.260;2022-08-14T01:36:18;17.60;99.90
15357;DHT22;7778;48.792;9.260;2022-08-14T01:39:08;17.60;99.90
15357;DHT22;7778;48.792;9.260;2022-08-14T01:41:55;17.60;99.90
15357;DHT22;7778;48.792;9.260;2022-08-14T01:44:45;17.50;99.90
15357;DHT22;7778;48.792;9.260;2022-08-14T01:47:32;17.40;99.90
15357;DHT22;7778;48.792;9.260;2022-08-14T01:50:18;17.40;99.90
15357;DHT22;7778;48.792;9.260;2022-08-14T01:53:03;17.40;99.90
15357;DHT22;7778;48.792;9.260;2022-08-14T01:55:50;17.20;99.90
15357;DHT22;7778;48.792;9.260;2022-08-14T01:58:42;17.20;99.90
15357;DHT22;7778;48.792;9.260;2022-08-14T02:01:35;17.30;99.90
15357;DHT22;7778;48.792;9.260;2022-08-14T02:04:22;17.30;99.90
15357;DHT22;7778;48.792;9.260;2022-08-14T02:07:09;17.40;99.90
15357;DHT22;7778;48.792;9.260;2022-08-14T02:09:55;17.30;99.90
15357;DHT22;7778;48.792;9.260;2022-08-14T02:12:44;17.30;99.90
15357;DHT22;7778;48.792;9.260;2022-08-14T02:15:30;17.30;99.90
15357;DHT22;7778;48.792;9.260;2022-08-14T02:18:17;17.30;99.90
15357;DHT22;7778;48.792;9.260;2022-08-14T02:21:03;17.30;99.90
15357;DHT22;7778;48.792;9.260;2022-08-14T02:23:52;17.40;99.90
15357;DHT22;7778;48.792;9.260;2022-08-14T02:26:41;17.30;99.90
15357;DHT22;7778;48.792;9.260;2022-08-14T02:29:32;17.20;99.90
15357;DHT22;7778;48.792;9.260;2022-08-14T02:32:18;17.20;99.90
15357;DHT22;7778;48.792;9.260;2022-08-14T02:35:06;17.10;99.90
15357;DHT22;7778;48.792;9.260;2022-08-14T02:37:58;16.90;99.90
15357;DHT22;7778;48.792;9.260;2022-08-14T02:40:44;16.90;99.90
15357;DHT22;7778;48.792;9.260;2022-08-14T02:43:30;16.90;99.90
15357;DHT22;7778;48.792;9.260;2022-08-14T02:46:17;16.90;99.90
15357;DHT22;7778;48.792;9.260;2022-08-14T02:49:05;17.00;99.90
15357;DHT22;7778;48.792;9.260;2022-08-14T02:51:50;17.10;99.90
15357;DHT22;7778;48.792;9.260;2022-08-14T02:54:36;17.00;99.90
15357;DHT22;7778;48.792;9.260;2022-08-14T02:57:23;16.90;99.90
15357;DHT22;7778;48.792;9.260;2022-08-14T03:00:10;16.80;99.90
15357;DHT22;7778;48.792;9.260;2022-08-14T03:02:58;16.70;99.90
15357;DHT22;7778;48.792;9.260;2022-08-14T03:05:45;16.60;99.90
15357;DHT22;7778;48.792;9.260;2022-08-14T03:08:35;16.60;99.90
15357;DHT22;7778;48.792;9.260;2022-08-14T03:11:21;16.50;99.90
15357;DHT22;7778;48.792;9.260;2022-08-14T03:14:08;16.50;99.90
15357;DHT22;7778;48.792;9.260;2022-08-14T03:16:55;16.50;99.90
15357;DHT22;7778;48.792;9.260;2022-08-14T03:19:42;16.50;99.90
15357;DHT22;7778;48.792;9.260;2022-08-14T03:22:28;16.50;99.90
15357;DHT22;7778;48.792;9.260;2022-08-14T03:25:14;16.50;99.90
15357;DHT22;7778;48.792;9.260;2022-08-14T03:28:04;16.50;99.90
15357;DHT22;7778;48.792;9.260;2022-08-14T03:30:50;16.50;99.90
15357;DHT22;7778;48.792;9.260;2022-08-14T03:33:36;16.50;99.90
15357;DHT22;7778;48.792;9.260;2022-08-14T03:36:29;16.50;99.90
15357;DHT22;7778;48.792;9.260;2022-08-14T03:39:18;16.50;99.90
15357;DHT22;7778;48.792;9.260;2022-08-14T03:42:05;16.40;99.90
15357;DHT22;7778;48.792;9.260;2022-08-14T03:44:50;16.40;99.90
15357;DHT22;7778;48.792;9.260;2022-08-14T03:47:36;16.40;99.90
15357;DHT22;7778;48.792;9.260;2022-08-14T03:50:24;16.30;99.90
15357;DHT22;7778;48.792;9.260;2022-08-14T03:53:12;16.30;99.90
15357;DHT22;7778;48.792;9.260;2022-08-14T03:55:58;16.20;99.90
15357;DHT22;7778;48.792;9.260;2022-08-14T03:58:46;16.00;99.90
15357;DHT22;7778;48.792;9.260;2022-08-14T04:01:33;16.00;99.90
15357;DHT22;7778;48.792;9.260;2022-08-14T04:04:19;15.90;99.90
15357;DHT22;7778;48.792;9.260;2022-08-14T04:07:05;15.90;99.90
15357;DHT22;7778;48.792;9.260;2022-08-14T04:09:55;15.90;99.90
15357;DHT22;7778;48.792;9.260;2022-08-14T04:12:40;15.90;99.90
15357;DHT22;7778;48.792;9.260;2022-08-14T04:15:26;15.80;99.90
15357;DHT22;7778;48.792;9.260;2022-08-14T04:18:12;15.90;99.90
15357;DHT22;7778;48.792;9.260;2022-08-14T04:20:58;16.00;99.90
15357;DHT22;7778;48.792;9.260;2022-08-14T04:23:45;15.80;99.90
15357;DHT22;7778;48.792;9.260;2022-08-14T04:26:33;15.80;99.90
15357;DHT22;7778;48.792;9.260;2022-08-14T04:29:19;15.90;99.90
15357;DHT22;7778;48.792;9.260;2022-08-14T04:32:06;15.80;99.90
15357;DHT22;7778;48.792;9.260;2022-08-14T04:34:53;15.80;99.90
15357;DHT22;7778;48.792;9.260;2022-08-14T04:37:39;15.80;99.90
15357;DHT22;7778;48.792;9.260;2022-08-14T04:40:43;15.90;99.90
15357;DHT22;7778;48.792;9.260;2022-08-14T04:43:48;16.00;99.90
15357;DHT22;7778;48.792;9.260;2022-08-14T04:46:34;16.00;99.90
15357;DHT22;7778;48.792;9.260;2022-08-14T04:49:20;16.00;99.90
15357;DHT22;7778;48.792;9.260;2022-08-14T04:52:05;16.10;99.90
15357;DHT22;7778;48.792;9.260;2022-08-14T04:54:52;16.30;99.90
15357;DHT22;7778;48.792;9.260;2022-08-14T04:57:37;16.20;99.90
15357;DHT22;7778;48.792;9.260;2022-08-14T05:00:25;16.30;99.90
15357;DHT22;7778;48.792;9.260;2022-08-14T05:03:11;16.40;99.90
15357;DHT22;7778;48.792;9.260;2022-08-14T05:05:58;16.60;99.90
15357;DHT22;7778;48.792;9.260;2022-08-14T05:08:45;16.70;99.90
15357;DHT22;7778;48.792;9.260;2022-08-14T05:11:31;16.80;99.90
15357;DHT22;7778;48.792;9.260;2022-08-14T05:14:19;17.10;99.90
15357;DHT22;7778;48.792;9.260;2022-08-14T05:17:07;17.30;99.90
15357;DHT22;7778;48.792;9.260;2022-08-14T05:19:54;17.40;99.90
15357;DHT22;7778;48.792;9.260;2022-08-14T05:22:39;17.50;99.90
15357;DHT22;7778;48.792;9.260;2022-08-14T05:25:25;17.80;99.90
15357;DHT22;7778;48.792;9.260;2022-08-14T05:28:13;18.50;99.90
15357;DHT22;7778;48.792;9.260;2022-08-14T05:31:04;19.50;99.90
15357;DHT22;7778;48.792;9.260;2022-08-14T05:33:52;20.80;99.90
15357;DHT22;7778;48.792;9.260;2022-08-14T05:36:38;21.70;99.90
15357;DHT22;7778;48.792;9.260;2022-08-14T05:39:26;21.70;99.90
15357;DHT22;7778;48.792;9.260;2022-08-14T05:42:12;22.60;99.90
15357;DHT22;7778;48.792;9.260;2022-08-14T05:44:58;24.20;99.90
15357;DHT22;7778;48.792;9.260;2022-08-14T05:47:44;25.00;99.20
15357;DHT22;7778;48.792;9.260;2022-08-14T05:50:32;25.50;97.30
15357;DHT22;7778;48.792;9.260;2022-08-14T05:53:18;25.80;94.40
15357;DHT22;7778;48.792;9.260;2022-08-14T05:56:04;25.60;94.00
15357;DHT22;7778;48.792;9.260;2022-08-14T05:58:50;26.00;93.30
15357;DHT22;7778;48.792;9.260;2022-08-14T06:01:36;26.40;91.60
15357;DHT22;7778;48.792;9.260;2022-08-14T06:04:22;27.20;91.10
15357;DHT22;7778;48.792;9.260;2022-08-14T06:07:09;28.60;87.60
15357;DHT22;7778;48.792;9.260;2022-08-14T06:09:55;29.60;81.60
15357;DHT22;7778;48.792;9.260;2022-08-14T06:12:41;29.20;77.10
15357;DHT22;7778;48.792;9.260;2022-08-14T06:15:26;28.90;77.00
15357;DHT22;7778;48.792;9.260;2022-08-14T06:18:14;28.30;76.80
15357;DHT22;7778;48.792;9.260;2022-08-14T06:21:00;27.50;79.70
15357;DHT22;7778;48.792;9.260;2022-08-14T06:23:48;27.80;80.60
15357;DHT22;7778;48.792;9.260;2022-08-14T06:26:34;27.80;79.80
15357;DHT22;7778;48.792;9.260;2022-08-14T06:29:19;27.70;78.50
15357;DHT22;7778;48.792;9.260;2022-08-14T06:32:05;27.30;78.70
15357;DHT22;7778;48.792;9.260;2022-08-14T06:34:51;27.50;80.20
15357;DHT22;7778;48.792;9.260;2022-08-14T06:37:41;27.70;78.30
15357;DHT22;7778;48.792;9.260;2022-08-14T06:40:31;27.60;77.90
15357;DHT22;7778;48.792;9.260;2022-08-14T06:43:19;28.00;77.50
15357;DHT22;7778;48.792;9.260;2022-08-14T06:46:06;27.70;76.70
15357;DHT22;7778;48.792;9.260;2022-08-14T06:48:53;28.20;75.90
15357;DHT22;7778;48.792;9.260;2022-08-14T06:51:38;29.00;75.90
15357;DHT22;7778;48.792;9.260;2022-08-14T06:54:29;30.40;72.00
15357;DHT22;7778;48.792;9.260;2022-08-14T06:57:17;29.90;69.50
15357;DHT22;7778;48.792;9.260;2022-08-14T07:00:05;29.10;71.80
15357;DHT22;7778;48.792;9.260;2022-08-14T07:02:51;29.50;71.90
15357;DHT22;7778;48.792;9.260;2022-08-14T07:05:55;30.80;70.60
15357;DHT22;7778;48.792;9.260;2022-08-14T07:08:41;30.90;68.10
15357;DHT22;7778;48.792;9.260;2022-08-14T07:11:27;31.70;65.50
15357;DHT22;7778;48.792;9.260;2022-08-14T07:14:14;31.10;66.00
15357;DHT22;7778;48.792;9.260;2022-08-14T07:17:00;31.40;65.70
15357;DHT22;7778;48.792;9.260;2022-08-14T07:19:46;30.80;65.60
15357;DHT22;7778;48.792;9.260;2022-08-14T07:22:31;31.30;65.60
15357;DHT22;7778;48.792;9.260;2022-08-14T07:25:17;32.00;64.00
15357;DHT22;7778;48.792;9.260;2022-08-14T07:28:08;32.50;62.50
15357;DHT22;7778;48.792;9.260;2022-08-14T07:30:57;33.00;61.40
15357;DHT22;7778;48.792;9.260;2022-08-14T07:33:45;34.10;60.30
15357;DHT22;7778;48.792;9.260;2022-08-14T07:36:32;34.80;57.50
15357;DHT22;7778;48.792;9.260;2022-08-14T07:39:18;35.70;56.60
15357;DHT22;7778;48.792;9.260;2022-08-14T07:42:05;35.60;55.20
15357;DHT22;7778;48.792;9.260;2022-08-14T07:44:51;35.20;54.30
15357;DHT22;7778;48.792;9.260;2022-08-14T07:47:40;34.50;54.30
15357;DHT22;7778;48.792;9.260;2022-08-14T07:50:26;34.00;54.60
15357;DHT22;7778;48.792;9.260;2022-08-14T07:53:12;33.40;55.30
15357;DHT22;7778;48.792;9.260;2022-08-14T07:55:58;33.70;56.70
15357;DHT22;7778;48.792;9.260;2022-08-14T07:58:44;34.40;55.80
15357;DHT22;7778;48.792;9.260;2022-08-14T08:01:30;34.70;54.70
15357;DHT22;7778;48.792;9.260;2022-08-14T08:04:22;35.20;54.10
15357;DHT22;7778;48.792;9.260;2022-08-14T08:07:09;35.80;53.20
15357;DHT22;7778;48.792;9.260;2022-08-14T08:09:56;36.20;52.20
15357;DHT22;7778;48.792;9.260;2022-08-14T08:12:42;36.20;50.80
15357;DHT22;7778;48.792;9.260;2022-08-14T08:15:30;36.20;51.50
15357;DHT22;7778;48.792;9.260;2022-08-14T08:18:17;36.90;50.50
15357;DHT22;7778;48.792;9.260;2022-08-14T08:21:04;36.50;49.90
15357;DHT22;7778;48.792;9.260;2022-08-14T08:23:51;36.90;50.90
15357;DHT22;7778;48.792;9.260;2022-08-14T08:26:37;37.70;49.70
15357;DHT22;7778;48.792;9.260;2022-08-14T08:29:23;38.00;48.50
15357;DHT22;7778;48.792;9.260;2022-08-14T08:32:09;38.30;48.30
15357;DHT22;7778;48.792;9.260;2022-08-14T08:34:55;38.50;46.50
15357;DHT22;7778;48.792;9.260;2022-08-14T08:37:42;38.50;47.50
15357;DHT22;7778;48.792;9.260;2022-08-14T08:40:30;38.60;47.70
15357;DHT22;7778;48.792;9.260;2022-08-14T08:43:20;38.50;45.30
15357;DHT22;7778;48.792;9.260;2022-08-14T08:46:09;37.70;46.00
15357;DHT22;7778;48.792;9.260;2022-08-14T08:48:57;36.30;45.30
15357;DHT22;7778;48.792;9.260;2022-08-14T08:51:43;35.00;46.40
15357;DHT22;7778;48.792;9.260;2022-08-14T08:54:30;35.50;47.90
15357;DHT22;7778;48.792;9.260;2022-08-14T08:57:16;36.30;47.60
15357;DHT22;7778;48.792;9.260;2022-08-14T09:00:12;36.80;45.90
15357;DHT22;7778;48.792;9.260;2022-08-14T09:03:05;37.20;43.60
15357;DHT22;7778;48.792;9.260;2022-08-14T09:05:55;36.20;43.90
15357;DHT22;7778;48.792;9.260;2022-08-14T09:08:44;36.10;43.80
15357;DHT22;7778;48.792;9.260;2022-08-14T09:11:32;37.20;43.70
15357;DHT22;7778;48.792;9.260;2022-08-14T09:14:18;37.00;42.20
15357;DHT22;7778;48.792;9.260;2022-08-14T09:17:04;36.80;41.50
15357;DHT22;7778;48.792;9.260;2022-08-14T09:19:50;36.10;42.00
15357;DHT22;7778;48.792;9.260;2022-08-14T09:22:36;35.50;42.50
15357;DHT22;7778;48.792;9.260;2022-08-14T09:25:22;35.40;42.80
15357;DHT22;7778;48.792;9.260;2022-08-14T09:28:09;34.50;43.40
15357;DHT22;7778;48.792;9.260;2022-08-14T09:30:56;34.00;44.40
15357;DHT22;7778;48.792;9.260;2022-08-14T09:33:54;34.60;44.50
15357;DHT22;7778;48.792;9.260;2022-08-14T09:37:02;33.60;44.70
15357;DHT22;7778;48.792;9.260;2022-08-14T09:40:03;32.50;46.00
15357;DHT22;7778;48.792;9.260;2022-08-14T09:43:03;32.50;46.10
15357;DHT22;7778;48.792;9.260;2022-08-14T09:45:55;33.20;46.20
15357;DHT22;7778;48.792;9.260;2022-08-14T09:48:42;33.20;45.60
15357;DHT22;7778;48.792;9.260;2022-08-14T09:51:29;32.90;45.90
15357;DHT22;7778;48.792;9.260;2022-08-14T09:54:16;32.20;47.30
15357;DHT22;7778;48.792;9.260;2022-08-14T09:57:02;32.60;46.80
15357;DHT22;7778;48.792;9.260;2022-08-14T09:59:50;34.00;45.90
15357;DHT22;7778;48.792;9.260;2022-08-14T10:02:37;35.50;43.20
15357;DHT22;7778;48.792;9.260;2022-08-14T10:05:29;35.00;42.80
15357;DHT22;7778;48.792;9.260;2022-08-14T10:08:18;34.50;44.00
15357;DHT22;7778;48.792;9.260;2022-08-14T10:11:12;34.00;44.20
15357;DHT22;7778;48.792;9.260;2022-08-14T10:14:11;33.90;45.10
15357;DHT22;7778;48.792;9.260;2022-08-14T10:17:00;33.20;45.40
15357;DHT22;7778;48.792;9.260;2022-08-14T10:19:49;32.90;45.30
15357;DHT22;7778;48.792;9.260;2022-08-14T10:22:35;33.50;45.30
15357;DHT22;7778;48.792;9.260;2022-08-14T10:25:21;34.00;44.40
15357;DHT22;7778;48.792;9.260;2022-08-14T10:28:07;34.80;42.60
15357;DHT22;7778;48.792;9.260;2022-08-14T10:30:53;35.30;43.00
15357;DHT22;7778;48.792;9.260;2022-08-14T10:33:39;34.80;42.30
15357;DHT22;7778;48.792;9.260;2022-08-14T10:36:27;34.20;43.80
15357;DHT22;7778;48.792;9.260;2022-08-14T10:39:20;33.80;44.20
15357;DHT22;7778;48.792;9.260;2022-08-14T10:42:10;34.40;43.80
15357;DHT22;7778;48.792;9.260;2022-08-14T10:44:57;34.50;43.30
15357;DHT22;7778;48.792;9.260;2022-08-14T10:47:43;35.70;43.30
15357;DHT22;7778;48.792;9.260;2022-08-14T10:50:30;35.50;41.80
15357;DHT22;7778;48.792;9.260;2022-08-14T10:53:29;35.10;42.50
15357;DHT22;7778;48.792;9.260;2022-08-14T10:56:16;34.40;43.20
15357;DHT22;7778;48.792;9.260;2022-08-14T10:59:02;33.50;43.70
15357;DHT22;7778;48.792;9.260;2022-08-14T11:01:49;33.20;44.00
15357;DHT22;7778;48.792;9.260;2022-08-14T11:04:34;33.50;44.40
15357;DHT22;7778;48.792;9.260;2022-08-14T11:07:20;33.60;44.70
15357;DHT22;7778;48.792;9.260;2022-08-14T11:10:09;33.50;43.60
15357;DHT22;7778;48.792;9.260;2022-08-14T11:12:56;32.70;44.40
15357;DHT22;7778;48.792;9.260;2022-08-14T11:15:43;32.40;45.10
15357;DHT22;7778;48.792;9.260;2022-08-14T11:18:30;31.90;46.00
15357;DHT22;7778;48.792;9.260;2022-08-14T11:21:18;32.00;45.80
15357;DHT22;7778;48.792;9.260;2022-08-14T11:24:07;32.30;45.60
15357;DHT22;7778;48.792;9.260;2022-08-14T11:26:58;32.60;45.00
15357;DHT22;7778;48.792;9.260;2022-08-14T11:29:45;32.70;45.90
15357;DHT22;7778;48.792;9.260;2022-08-14T11:32:32;32.80;46.20
15357;DHT22;7778;48.792;9.260;2022-08-14T11:35:20;32.50;44.20
15357;DHT22;7778;48.792;9.260;2022-08-14T11:38:14;32.40;45.00
15357;DHT22;7778;48.792;9.260;2022-08-14T11:41:00;32.30;44.10
15357;DHT22;7778;48.792;9.260;2022-08-14T11:43:48;31.80;45.20
15357;DHT22;7778;48.792;9.260;2022-08-14T11:46:35;32.00;47.10
15357;DHT22;7778;48.792;9.260;2022-08-14T11:49:25;32.30;45.50
15357;DHT22;7778;48.792;9.260;2022-08-14T11:52:12;32.80;45.60
15357;DHT22;7778;48.792;9.260;2022-08-14T11:54:58;32.30;44.80
15357;DHT22;7778;48.792;9.260;2022-08-14T11:57:45;32.20;43.90
15357;DHT22;7778;48.792;9.260;2022-08-14T12:00:44;31.80;45.50
15357;DHT22;7778;48.792;9.260;2022-08-14T12:03:37;32.00;45.40
15357;DHT22;7778;48.792;9.260;2022-08-14T12:06:44;32.50;45.10
15357;DHT22;7778;48.792;9.260;2022-08-14T12:09:37;32.70;43.50
15357;DHT22;7778;48.792;9.260;2022-08-14T12:12:25;32.80;43.60
15357;DHT22;7778;48.792;9.260;2022-08-14T12:15:15;32.90;44.40
15357;DHT22;7778;48.792;9.260;2022-08-14T12:18:03;32.70;43.00
15357;DHT22;7778;48.792;9.260;2022-08-14T12:20:49;32.10;40.80
15357;DHT22;7778;48.792;9.260;2022-08-14T12:23:35;32.00;43.10
15357;DHT22;7778;48.792;9.260;2022-08-14T12:26:23;32.10;42.00
15357;DHT22;7778;48.792;9.260;2022-08-14T12:29:11;31.90;43.70
15357;DHT22;7778;48.792;9.260;2022-08-14T12:31:58;31.70;42.90
15357;DHT22;7778;48.792;9.260;2022-08-14T12:34:54;32.00;40.80
15357;DHT22;7778;48.792;9.260;2022-08-14T12:37:46;32.10;40.80
15357;DHT22;7778;48.792;9.260;2022-08-14T12:40:33;32.00;42.50
15357;DHT22;7778;48.792;9.260;2022-08-14T12:43:30;32.00;40.50
15357;DHT22;7778;48.792;9.260;2022-08-14T12:46:22;31.60;39.60
15357;DHT22;7778;48.792;9.260;2022-08-14T12:49:10;31.60;40.70
15357;DHT22;7778;48.792;9.260;2022-08-14T12:51:59;32.00;40.90
15357;DHT22;7778;48.792;9.260;2022-08-14T12:54:58;31.80;40.50
15357;DHT22;7778;48.792;9.260;2022-08-14T12:57:46;31.80;40.80
15357;DHT22;7778;48.792;9.260;2022-08-14T13:00:35;31.60;40.20
15357;DHT22;7778;48.792;9.260;2022-08-14T13:03:23;31.60;41.80
15357;DHT22;7778;48.792;9.260;2022-08-14T13:06:10;31.60;40.40
15357;DHT22;7778;48.792;9.260;2022-08-14T13:08:59;31.20;42.70
15357;DHT22;7778;48.792;9.260;2022-08-14T13:11:46;31.80;43.70
15357;DHT22;7778;48.792;9.260;2022-08-14T13:14:35;32.00;41.00
15357;DHT22;7778;48.792;9.260;2022-08-14T13:17:22;32.20;42.10
15357;DHT22;7778;48.792;9.260;2022-08-14T13:20:10;32.30;40.70
15357;DHT22;7778;48.792;9.260;2022-08-14T13:22:57;31.90;41.90
15357;DHT22;7778;48.792;9.260;2022-08-14T13:25:48;31.60;42.90
15357;DHT22;7778;48.792;9.260;2022-08-14T13:28:38;31.50;43.30
15357;DHT22;7778;48.792;9.260;2022-08-14T13:31:26;31.70;42.60
15357;DHT22;7778;48.792;9.260;2022-08-14T13:34:15;31.60;42.20
15357;DHT22;7778;48.792;9.260;2022-08-14T13:37:02;31.60;41.50
15357;DHT22;7778;48.792;9.260;2022-08-14T13:39:52;31.60;43.10
15357;DHT22;7778;48.792;9.260;2022-08-14T13:42:43;31.80;42.00
15357;DHT22;7778;48.792;9.260;2022-08-14T13:45:29;32.10;42.70
15357;DHT22;7778;48.792;9.260;2022-08-14T13:48:15;32.10;42.30
15357;DHT22;7778;48.792;9.260;2022-08-14T13:51:03;31.60;40.70
15357;DHT22;7778;48.792;9.260;2022-08-14T13:53:55;31.50;40.10
15357;DHT22;7778;48.792;9.260;2022-08-14T13:56:41;31.30;40.10
15357;DHT22;7778;48.792;9.260;2022-08-14T13:59:29;31.20;38.70
15357;DHT22;7778;48.792;9.260;2022-08-14T14:02:17;31.10;38.80
15357;DHT22;7778;48.792;9.260;2022-08-14T14:05:05;31.00;39.70
15357;DHT22;7778;48.792;9.260;2022-08-14T14:07:53;31.20;40.10
15357;DHT22;7778;48.792;9.260;2022-08-14T14:10:40;31.30;39.50
15357;DHT22;7778;48.792;9.260;2022-08-14T14:13:27;31.30;39.70
15357;DHT22;7778;48.792;9.260;2022-08-14T14:16:15;31.20;40.00
15357;DHT22;7778;48.792;9.260;2022-08-14T14:19:01;31.30;39.50
15357;DHT22;7778;48.792;9.260;2022-08-14T14:21:48;31.30;39.20
15357;DHT22;7778;48.792;9.260;2022-08-14T14:24:34;31.20;39.30
15357;DHT22;7778;48.792;9.260;2022-08-14T14:27:28;31.20;40.10
15357;DHT22;7778;48.792;9.260;2022-08-14T14:30:17;31.30;40.30
15357;DHT22;7778;48.792;9.260;2022-08-14T14:33:04;31.40;41.60
15357;DHT22;7778;48.792;9.260;2022-08-14T14:35:50;31.50;40.80
15357;DHT22;7778;48.792;9.260;2022-08-14T14:38:37;31.50;39.10
15357;DHT22;7778;48.792;9.260;2022-08-14T14:41:29;31.60;41.30
15357;DHT22;7778;48.792;9.260;2022-08-14T14:44:22;31.60;40.90
15357;DHT22;7778;48.792;9.260;2022-08-14T14:47:11;31.30;39.20
15357;DHT22;7778;48.792;9.260;2022-08-14T14:50:00;30.90;39.90
15357;DHT22;7778;48.792;9.260;2022-08-14T14:52:48;30.90;40.90
15357;DHT22;7778;48.792;9.260;2022-08-14T14:55:36;31.00;40.10
15357;DHT22;7778;48.792;9.260;2022-08-14T14:58:29;31.10;40.70
15357;DHT22;7778;48.792;9.260;2022-08-14T15:01:16;31.00;40.80
15357;DHT22;7778;48.792;9.260;2022-08-14T15:04:07;31.00;43.30
15357;DHT22;7778;48.792;9.260;2022-08-14T15:07:07;31.00;42.10
15357;DHT22;7778;48.792;9.260;2022-08-14T15:09:52;31.00;41.20
15357;DHT22;7778;48.792;9.260;2022-08-14T15:12:38;30.90;42.20
15357;DHT22;7778;48.792;9.260;2022-08-14T15:15:24;30.90;43.40
15357;DHT22;7778;48.792;9.260;2022-08-14T15:18:10;30.90;41.10
15357;DHT22;7778;48.792;9.260;2022-08-14T15:20:56;30.90;40.30
15357;DHT22;7778;48.792;9.260;2022-08-14T15:23:45;31.10;42.00
15357;DHT22;7778;48.792;9.260;2022-08-14T15:26:31;31.20;39.10
15357;DHT22;7778;48.792;9.260;2022-08-14T15:29:18;31.10;37.30
15357;DHT22;7778;48.792;9.260;2022-08-14T15:32:05;30.70;39.00
15357;DHT22;7778;48.792;9.260;2022-08-14T15:34:52;30.50;36.70
15357;DHT22;7778;48.792;9.260;2022-08-14T15:37:37;30.40;38.70
15357;DHT22;7778;48.792;9.260;2022-08-14T15:40:24;30.40;41.10
15357;DHT22;7778;48.792;9.260;2022-08-14T15:43:10;30.60;40.00
15357;DHT22;7778;48.792;9.260;2022-08-14T15:45:56;30.60;41.20
15357;DHT22;7778;48.792;9.260;2022-08-14T15:48:42;30.70;42.20
15357;DHT22;7778;48.792;9.260;2022-08-14T15:51:28;30.80;41.00
15357;DHT22;7778;48.792;9.260;2022-08-14T15:54:15;30.90;39.20
15357;DHT22;7778;48.792;9.260;2022-08-14T15:57:05;31.00;38.90
15357;DHT22;7778;48.792;9.260;2022-08-14T15:59:52;31.10;39.40
15357;DHT22;7778;48.792;9.260;2022-08-14T16:02:55;31.10;42.10
15357;DHT22;7778;48.792;9.260;2022-08-14T16:05:41;31.20;40.60
15357;DHT22;7778;48.792;9.260;2022-08-14T16:08:27;31.20;39.70
15357;DHT22;7778;48.792;9.260;2022-08-14T16:11:13;31.10;38.60
15357;DHT22;7778;48.792;9.260;2022-08-14T16:14:01;31.10;38.40
15357;DHT22;7778;48.792;9.260;2022-08-14T16:16:47;31.10;38.60
15357;DHT22;7778;48.792;9.260;2022-08-14T16:19:34;31.20;38.40
15357;DHT22;7778;48.792;9.260;2022-08-14T16:22:23;31.10;39.60
15357;DHT22;7778;48.792;9.260;2022-08-14T16:25:09;31.10;39.00
15357;DHT22;7778;48.792;9.260;2022-08-14T16:27:57;31.00;38.80
15357;DHT22;7778;48.792;9.260;2022-08-14T16:30:45;30.90;38.80
15357;DHT22;7778;48.792;9.260;2022-08-14T16:33:34;30.80;39.20
15357;DHT22;7778;48.792;9.260;2022-08-14T16:36:20;30.60;39.70
15357;DHT22;7778;48.792;9.260;2022-08-14T16:39:06;30.70;38.90
15357;DHT22;7778;48.792;9.260;2022-08-14T16:41:52;30.80;38.70
15357;DHT22;7778;48.792;9.260;2022-08-14T16:44:43;30.70;39.30
15357;DHT22;7778;48.792;9.260;2022-08-14T16:47:31;30.70;39.10
15357;DHT22;7778;48.792;9.260;2022-08-14T16:50:17;30.70;39.20
15357;DHT22;7778;48.792;9.260;2022-08-14T16:53:04;30.70;40.30
15357;DHT22;7778;48.792;9.260;2022-08-14T16:56:07;30.60;39.90
15357;DHT22;7778;48.792;9.260;2022-08-14T16:59:06;30.50;39.20
15357;DHT22;7778;48.792;9.260;2022-08-14T17:01:56;30.40;38.00
15357;DHT22;7778;48.792;9.260;2022-08-14T17:04:43;30.50;38.50
15357;DHT22;7778;48.792;9.260;2022-08-14T17:07:30;30.60;40.10
15357;DHT22;7778;48.792;9.260;2022-08-14T17:10:15;30.50;42.10
15357;DHT22;7778;48.792;9.260;2022-08-14T17:13:15;30.40;41.50
15357;DHT22;7778;48.792;9.260;2022-08-14T17:16:06;30.30;42.80
15357;DHT22;7778;48.792;9.260;2022-08-14T17:18:57;30.10;40.30
15357;DHT22;7778;48.792;9.260;2022-08-14T17:21:49;29.90;40.60
15357;DHT22;7778;48.792;9.260;2022-08-14T17:24:35;30.00;42.20
15357;DHT22;7778;48.792;9.260;2022-08-14T17:27:21;30.00;41.90
15357;DHT22;7778;48.792;9.260;2022-08-14T17:30:07;29.90;43.30
15357;DHT22;7778;48.792;9.260;2022-08-14T17:32:56;29.70;44.90
15357;DHT22;7778;48.792;9.260;2022-08-14T17:35:45;29.50;43.70
15357;DHT22;7778;48.792;9.260;2022-08-14T17:38:32;29.40;44.00
15357;DHT22;7778;48.792;9.260;2022-08-14T17:41:21;29.30;45.20
15357;DHT22;7778;48.792;9.260;2022-08-14T17:44:12;29.20;45.40
15357;DHT22;7778;48.792;9.260;2022-08-14T17:47:09;29.10;46.00
15357;DHT22;7778;48.792;9.260;2022-08-14T17:49:56;29.00;47.20
15357;DHT22;7778;48.792;9.260;2022-08-14T17:52:42;28.90;47.90
15357;DHT22;7778;48.792;9.260;2022-08-14T17:55:30;28.70;47.70
15357;DHT22;7778;48.792;9.260;2022-08-14T17:58:18;28.70;48.30